createdAt,value
2019-05-02T00:02:52.950Z,5.90
2019-05-02T00:08:22.971Z,5.97
2019-05-02T00:13:53.980Z,6.30
2019-05-02T00:19:23.388Z,6.10
2019-05-02T00:24:52.892Z,5.00
2019-05-02T00:30:22.619Z,5.30
2019-05-02T00:35:52.069Z,5.83
2019-05-02T00:41:21.513Z,5.10
2019-05-02T00:46:51.266Z,5.97
2019-05-02T00:52:20.885Z,5.63
2019-05-02T00:57:50.866Z,5.50
2019-05-02T01:03:22.274Z,5.10
2019-05-02T01:08:51.783Z,4.80
2019-05-02T01:14:21.294Z,5.10
2019-05-02T01:19:51.579Z,5.10
2019-05-02T01:25:22.150Z,5.50
2019-05-02T01:31:13.079Z,6.17
2019-05-02T01:36:45.675Z,6.03
2019-05-02T01:42:15.257Z,4.63
2019-05-02T01:47:44.780Z,5.70
2019-05-02T01:53:14.242Z,6.80
2019-05-02T01:58:43.747Z,4.97
2019-05-02T02:04:16.292Z,5.30
2019-05-02T02:09:46.314Z,5.53
2019-05-02T02:15:16.069Z,5.13
2019-05-02T02:20:56.349Z,5.37
2019-05-02T02:26:25.786Z,5.33
2019-05-02T02:31:55.259Z,4.90
2019-05-02T02:37:24.556Z,4.50
2019-05-02T02:42:53.960Z,4.60
2019-05-02T02:48:23.727Z,4.53
2019-05-02T02:54:02.826Z,4.67
2019-05-02T02:59:26.273Z,4.50
2019-05-02T03:04:55.446Z,4.83
2019-05-02T03:10:24.842Z,3.90
2019-05-02T03:16:07.007Z,4.20
2019-05-02T03:21:38.885Z,4.30
2019-05-02T03:27:08.373Z,4.20
2019-05-02T03:32:37.967Z,4.20
2019-05-02T03:38:07.447Z,4.43
2019-05-02T03:43:37.064Z,4.43
2019-05-02T03:49:09.387Z,4.30
2019-05-02T03:54:49.084Z,3.90
2019-05-02T04:00:13.609Z,3.80
2019-05-02T04:05:42.238Z,4.30
2019-05-02T04:11:21.238Z,4.40
2019-05-02T04:16:55.293Z,4.40
2019-05-02T04:22:22.988Z,4.17
2019-05-02T04:27:52.627Z,3.83
2019-05-02T04:33:22.249Z,3.70
2019-05-02T04:38:52.621Z,3.87
2019-05-02T04:44:29.872Z,5.13
2019-05-02T04:49:53.917Z,4.20
2019-05-02T04:55:29.952Z,3.90
2019-05-02T05:01:01.007Z,3.40
2019-05-02T05:06:27.755Z,3.57
2019-05-02T05:12:07.050Z,3.63
2019-05-02T05:17:37.542Z,3.63
2019-05-02T05:23:08.210Z,3.70
2019-05-02T05:28:40.569Z,3.33
2019-05-02T05:34:09.834Z,3.73
2019-05-02T05:39:43.060Z,5.23
2019-05-02T05:45:13.737Z,4.80
2019-05-02T05:50:42.115Z,3.50
2019-05-02T05:56:11.588Z,4.07
2019-05-02T06:01:41.066Z,4.00
2019-05-02T06:07:10.482Z,4.10
2019-05-02T06:12:39.871Z,3.73
2019-05-02T06:18:09.308Z,3.40
2019-05-02T06:23:41.383Z,4.00
2019-05-02T06:29:12.950Z,3.47
2019-05-02T06:34:46.489Z,3.23
2019-05-02T06:40:12.613Z,3.93
2019-05-02T06:45:42.111Z,2.90
2019-05-02T06:51:19.658Z,3.57
2019-05-02T06:56:43.189Z,3.30
2019-05-02T07:02:14.065Z,3.73
2019-05-02T07:07:43.792Z,3.53
2019-05-02T07:13:15.041Z,3.30
2019-05-02T07:18:47.685Z,3.87
2019-05-02T07:24:17.725Z,3.80
2019-05-02T07:29:47.290Z,3.87
2019-05-02T07:35:19.304Z,4.00
2019-05-02T07:40:48.301Z,3.90
2019-05-02T07:46:21.035Z,4.50
2019-05-02T07:51:52.265Z,4.33
2019-05-02T07:57:25.273Z,4.80
2019-05-02T08:02:57.911Z,18.93
2019-05-02T08:08:24.992Z,4.77
2019-05-02T08:14:00.310Z,5.57
2019-05-02T08:19:26.951Z,5.63
2019-05-02T08:24:56.302Z,5.80
2019-05-02T08:30:27.809Z,5.70
2019-05-02T08:35:57.402Z,5.00
2019-05-02T08:41:26.992Z,5.30
2019-05-02T08:46:56.661Z,5.60
2019-05-02T08:52:26.164Z,5.57
2019-05-02T08:57:55.698Z,5.33
2019-05-02T09:03:25.112Z,4.70
2019-05-02T09:08:54.526Z,4.67
2019-05-02T09:14:23.976Z,5.43
2019-05-02T09:20:02.148Z,5.67
2019-05-02T09:25:24.745Z,5.67
2019-05-02T09:30:57.479Z,5.83
2019-05-02T09:36:25.217Z,5.33
2019-05-02T09:41:54.720Z,5.50
2019-05-02T09:47:27.425Z,5.33
2019-05-02T09:52:57.084Z,5.27
2019-05-02T09:58:26.555Z,4.83
2019-05-02T10:03:56.068Z,5.50
2019-05-02T10:09:27.192Z,6.40
2019-05-02T10:15:02.859Z,4.97
2019-05-02T10:20:36.215Z,5.30
2019-05-02T10:26:03.794Z,5.90
2019-05-02T10:31:37.471Z,6.17
2019-05-02T10:37:08.905Z,5.40
2019-05-02T10:42:38.720Z,5.63
2019-05-02T10:48:21.501Z,5.57
2019-05-02T10:53:39.569Z,4.90
2019-05-02T10:59:08.984Z,5.80
2019-05-02T11:04:42.102Z,5.03
2019-05-02T11:10:12.307Z,4.60
2019-05-02T11:16:01.921Z,4.70
2019-05-02T11:21:32.223Z,4.80
2019-05-02T11:27:02.235Z,4.67
2019-05-02T11:32:32.675Z,4.60
2019-05-02T11:38:48.290Z,5.13
2019-05-02T11:43:55.850Z,4.10
2019-05-02T11:49:25.223Z,3.50
2019-05-02T11:54:54.538Z,3.37
2019-05-02T12:00:23.850Z,3.77
2019-05-02T12:05:53.148Z,3.70
2019-05-02T12:11:23.059Z,2.90
2019-05-02T12:16:52.825Z,2.90
2019-05-02T12:22:22.595Z,4.80
2019-05-02T12:27:52.687Z,3.40
2019-05-02T12:33:23.764Z,3.00
2019-05-02T12:38:53.120Z,2.93
2019-05-02T12:44:23.935Z,3.40
2019-05-02T12:49:53.221Z,3.30
2019-05-02T12:55:22.513Z,3.10
2019-05-02T13:00:53.091Z,3.50
2019-05-02T13:06:22.706Z,3.20
2019-05-02T13:11:53.625Z,2.60
2019-05-02T13:17:23.022Z,3.10
2019-05-02T13:22:57.003Z,3.30
2019-05-02T13:28:26.355Z,3.07
2019-05-02T13:34:06.511Z,3.10
2019-05-02T13:39:35.881Z,2.37
2019-05-02T13:45:12.938Z,2.93
2019-05-02T13:50:42.443Z,2.37
2019-05-02T13:56:22.128Z,2.87
2019-05-02T14:01:53.594Z,2.43
2019-05-02T14:07:22.879Z,2.70
2019-05-02T14:12:56.487Z,2.10
2019-05-02T14:18:29.033Z,2.63
2019-05-02T14:23:56.834Z,2.80
2019-05-02T14:29:26.115Z,2.20
2019-05-02T14:34:57.059Z,2.30
2019-05-02T14:40:27.994Z,1.80
2019-05-02T14:45:57.703Z,2.10
2019-05-02T14:51:28.251Z,2.03
2019-05-02T14:57:02.134Z,2.03
2019-05-02T15:02:39.311Z,2.77
2019-05-02T15:08:07.223Z,2.60
2019-05-02T15:13:40.959Z,2.57
2019-05-02T15:19:09.264Z,2.60
2019-05-02T15:24:38.577Z,2.30
2019-05-02T15:30:08.343Z,2.80
2019-05-02T15:35:39.259Z,2.40
2019-05-02T15:41:12.637Z,2.73
2019-05-02T15:46:40.263Z,2.97
2019-05-02T15:52:12.551Z,3.20
2019-05-02T15:57:45.866Z,3.03
2019-05-02T16:03:12.963Z,3.27
2019-05-02T16:08:48.089Z,3.03
2019-05-02T16:14:17.403Z,3.20
2019-05-02T16:19:49.598Z,3.63
2019-05-02T16:25:20.130Z,3.20
2019-05-02T16:30:52.562Z,3.80
2019-05-02T16:36:30.144Z,3.20
2019-05-02T16:41:53.063Z,3.13
2019-05-02T16:47:22.286Z,4.10
2019-05-02T16:52:53.114Z,3.80
2019-05-02T16:58:22.667Z,3.60
2019-05-02T17:03:53.080Z,4.37
2019-05-02T17:09:42.396Z,4.13
2019-05-02T17:15:31.348Z,4.10
2019-05-02T17:21:01.698Z,4.50
2019-05-02T17:26:31.789Z,3.90
2019-05-02T17:32:02.227Z,4.00
2019-05-02T17:37:32.577Z,4.17
2019-05-02T17:43:06.588Z,4.93
2019-05-02T17:48:34.747Z,5.00
2019-05-02T17:54:04.072Z,5.83
2019-05-02T17:59:36.634Z,5.50
2019-05-02T18:05:06.263Z,5.07
2019-05-02T18:10:36.206Z,4.60
2019-05-02T18:16:12.212Z,5.10
2019-05-02T18:21:36.867Z,4.87
2019-05-02T18:27:06.452Z,5.30
2019-05-02T18:32:35.747Z,5.50
2019-05-02T18:38:05.399Z,5.10
2019-05-02T18:43:36.109Z,5.90
2019-05-02T18:49:05.860Z,5.33
2019-05-02T18:54:38.638Z,5.80
2019-05-02T19:00:08.884Z,4.90
2019-05-02T19:05:38.212Z,5.17
2019-05-02T19:17:03.554Z,5.50
2019-05-02T19:22:32.189Z,4.00
2019-05-02T19:28:03.435Z,4.60
2019-05-02T19:33:37.589Z,4.83
2019-05-02T19:39:09.524Z,4.93
2019-05-02T19:44:37.687Z,5.20
2019-05-02T19:50:31.904Z,5.40
2019-05-02T19:56:03.047Z,5.23
2019-05-02T20:01:32.788Z,5.80
2019-05-02T20:07:02.517Z,5.43
2019-05-02T20:12:31.939Z,5.20
2019-05-02T20:18:04.645Z,5.90
2019-05-02T20:23:35.868Z,6.53
2019-05-02T20:29:12.496Z,6.00
2019-05-02T20:34:43.359Z,6.80
2019-05-02T20:40:33.815Z,5.80
2019-05-02T20:46:03.501Z,7.10
2019-05-02T20:51:32.984Z,6.97
2019-05-02T20:57:04.370Z,6.87
2019-05-02T21:02:34.834Z,7.73
2019-05-02T21:08:19.102Z,8.70
2019-05-02T21:13:48.875Z,7.70
2019-05-02T21:19:21.641Z,9.87
2019-05-02T21:24:52.857Z,7.47
2019-05-02T21:30:25.378Z,5.37
2019-05-02T21:35:55.119Z,4.20
2019-05-02T21:41:25.882Z,4.87
2019-05-02T21:46:56.633Z,4.20
2019-05-02T21:52:42.788Z,5.30
2019-05-02T21:58:14.348Z,5.23
2019-05-02T22:03:45.446Z,4.67
2019-05-02T22:09:17.950Z,4.90
2019-05-02T22:14:47.607Z,4.03
2019-05-02T22:20:17.080Z,2.90
2019-05-02T22:25:46.752Z,3.30
2019-05-02T22:31:16.684Z,3.50
2019-05-02T22:36:46.123Z,3.07
2019-05-02T22:42:16.211Z,3.27
2019-05-02T22:47:45.782Z,3.20
2019-05-02T22:53:15.270Z,2.90
2019-05-02T22:58:44.658Z,3.37
2019-05-02T23:04:14.947Z,2.63
2019-05-02T23:09:46.068Z,3.07
2019-05-02T23:15:15.658Z,2.60
2019-05-02T23:20:45.101Z,2.50
2019-05-02T23:26:18.337Z,2.50
2019-05-02T23:31:48.041Z,1.93
2019-05-02T23:37:17.718Z,1.77
2019-05-02T23:42:48.375Z,1.53
2019-05-02T23:48:18.212Z,1.77
2019-05-02T23:53:47.695Z,1.33
2019-05-02T23:59:17.221Z,1.00
